createdAt,value
2018-07-21T17:49:00.749Z,53.64
2018-07-21T17:50:00.721Z,52.37
2018-07-21T17:51:00.708Z,52.37
2018-07-21T17:52:00.689Z,52.09
2018-07-21T17:53:00.716Z,52.86
2018-07-21T17:54:00.664Z,52.19
2018-07-21T17:55:00.650Z,53.45
2018-07-21T17:56:00.641Z,54.03
2018-07-21T17:57:00.629Z,53.74
2018-07-21T17:58:00.670Z,53.93
2018-07-21T17:59:00.625Z,53.54
2018-07-21T18:00:00.603Z,53.64
2018-07-21T18:01:00.587Z,54.03
2018-07-21T18:02:00.577Z,54.42
2018-07-21T18:03:00.583Z,53.93
2018-07-21T18:04:00.561Z,54.58
2018-07-21T18:05:00.552Z,53.52
2018-07-21T18:06:00.558Z,54.58
2018-07-21T18:07:00.548Z,53.81
2018-07-21T18:08:00.538Z,54.58
2018-07-21T18:09:00.528Z,54.68
2018-07-21T18:10:00.535Z,54.78
2018-07-21T18:11:00.503Z,55.33
2018-07-21T18:12:00.513Z,54.94
2018-07-21T18:13:00.479Z,55.53
2018-07-21T18:14:00.509Z,55.92
2018-07-21T18:15:00.477Z,55.82
2018-07-21T18:16:00.512Z,54.36
2018-07-21T18:17:00.449Z,56.50
2018-07-21T18:18:00.443Z,55.04
2018-07-21T18:19:00.432Z,54.27
2018-07-21T18:20:00.479Z,54.27
2018-07-21T18:21:00.928Z,53.78
2018-07-21T18:22:00.447Z,53.59
2018-07-21T18:23:00.404Z,53.97
2018-07-21T18:24:03.347Z,54.27
2018-07-21T18:25:00.398Z,53.42
2018-07-21T18:26:00.378Z,53.49
2018-07-21T18:27:00.363Z,53.61
2018-07-21T18:28:00.358Z,53.32
2018-07-21T18:29:00.352Z,53.91
2018-07-21T18:30:00.343Z,52.72
2018-07-21T18:31:00.352Z,53.61
2018-07-21T18:32:00.362Z,53.03
2018-07-21T18:33:00.387Z,52.94
2018-07-21T18:34:00.308Z,52.55
2018-07-21T18:35:00.303Z,53.13
2018-07-21T18:36:00.316Z,53.03
2018-07-21T18:37:00.311Z,53.03
2018-07-21T18:38:00.292Z,52.94
2018-07-21T18:39:00.268Z,52.15
2018-07-21T18:40:00.329Z,54.00
2018-07-21T18:41:00.255Z,53.32
2018-07-21T18:42:00.263Z,52.15
2018-07-21T18:43:00.239Z,51.18
2018-07-21T18:44:00.234Z,51.67
2018-07-21T18:45:00.221Z,51.87
2018-07-21T18:46:00.228Z,51.97
2018-07-21T18:47:00.225Z,52.15
2018-07-21T18:48:00.205Z,52.23
2018-07-21T18:49:00.193Z,53.00
2018-07-21T18:50:00.180Z,52.72
2018-07-21T18:51:00.179Z,51.93
2018-07-21T18:52:00.238Z,52.42
2018-07-21T18:53:00.171Z,52.72
2018-07-21T18:54:00.147Z,53.00
2018-07-21T18:55:00.141Z,53.00
2018-07-21T18:56:00.133Z,53.69
2018-07-21T18:57:00.128Z,54.17
2018-07-21T18:58:00.141Z,55.14
2018-07-21T18:59:00.121Z,55.43
2018-07-21T19:00:00.113Z,55.92
2018-07-21T19:01:00.093Z,56.40
2018-07-21T19:02:00.090Z,57.15
2018-07-21T19:03:00.092Z,57.83
2018-07-21T19:04:00.079Z,57.93
2018-07-21T19:05:00.067Z,58.51
2018-07-21T19:06:00.065Z,59.58
2018-07-21T19:07:00.047Z,59.67
2018-07-21T19:08:21.079Z,60.13
2018-07-21T19:09:00.044Z,60.23
2018-07-21T19:10:00.033Z,60.61
2018-07-21T19:11:00.016Z,61.10
2018-07-21T19:12:00.013Z,61.39
2018-07-21T19:13:00.019Z,61.55
2018-07-21T19:14:00.003Z,61.68
2018-07-21T19:15:00.011Z,61.85
2018-07-21T19:15:59.990Z,62.52
2018-07-21T19:16:59.971Z,62.52
2018-07-21T19:17:59.955Z,62.72
2018-07-21T19:18:59.971Z,62.72
2018-07-21T19:20:00.019Z,63.78
2018-07-21T19:20:59.935Z,63.49
2018-07-21T19:21:59.960Z,63.69
2018-07-21T19:22:59.978Z,63.88
2018-07-21T19:23:59.924Z,63.69
2018-07-21T19:24:59.942Z,64.65
2018-07-21T19:25:59.891Z,64.75
2018-07-21T19:26:59.874Z,64.65
2018-07-21T19:27:59.908Z,64.95
2018-07-21T19:28:59.878Z,64.75
2018-07-21T19:29:59.866Z,64.65
2018-07-21T19:30:59.856Z,64.27
2018-07-21T19:31:59.946Z,64.92
2018-07-21T19:32:59.840Z,64.92
2018-07-21T19:33:59.838Z,65.59
2018-07-21T19:34:59.820Z,66.37
2018-07-21T19:35:59.880Z,65.89
2018-07-21T19:36:59.883Z,66.66
2018-07-21T19:37:59.863Z,66.85
2018-07-21T19:38:59.870Z,67.69
2018-07-21T19:39:59.800Z,67.21
2018-07-21T19:40:59.825Z,68.08
2018-07-21T19:41:59.826Z,68.66
2018-07-21T19:42:59.741Z,68.76
2018-07-21T19:43:59.739Z,68.27
2018-07-21T19:44:59.746Z,68.27
2018-07-21T19:45:59.712Z,67.95
2018-07-21T19:46:59.713Z,68.24
2018-07-21T19:47:59.696Z,68.43
2018-07-21T19:48:59.695Z,68.43
2018-07-21T19:49:59.697Z,68.15
2018-07-21T19:50:59.723Z,68.73
2018-07-21T19:51:59.662Z,68.73
2018-07-21T19:52:59.656Z,68.05
2018-07-21T19:53:59.640Z,67.37
2018-07-21T19:54:59.654Z,67.37
2018-07-21T19:55:59.631Z,67.46
2018-07-21T19:56:59.694Z,68.24
2018-07-21T19:57:59.609Z,68.15
2018-07-21T19:58:59.603Z,68.33
2018-07-21T19:59:59.586Z,69.40
2018-07-21T20:00:59.624Z,69.66
2018-07-21T20:01:59.581Z,69.85
2018-07-21T20:02:59.568Z,69.95
2018-07-21T20:03:59.604Z,69.85
2018-07-21T20:04:59.547Z,70.34
2018-07-21T20:05:59.538Z,70.98
2018-07-21T20:06:59.541Z,73.88
2018-07-21T20:07:59.516Z,73.88
2018-07-21T20:08:59.509Z,74.13
2018-07-21T20:09:59.503Z,76.55
2018-07-21T20:10:59.487Z,76.45
2018-07-21T20:11:59.502Z,76.84
2018-07-21T20:12:59.477Z,77.67
2018-07-21T20:13:59.471Z,76.55
2018-07-21T20:14:59.455Z,80.38
2018-07-21T20:15:59.445Z,79.80
2018-07-21T20:16:59.436Z,77.86
2018-07-21T20:17:59.439Z,76.32
2018-07-21T20:18:59.421Z,77.51
2018-07-21T20:19:59.404Z,75.68
2018-07-21T20:20:59.476Z,77.51
2018-07-21T20:21:59.399Z,78.19
2018-07-21T20:22:59.380Z,75.78
2018-07-21T20:23:59.365Z,75.48
2018-07-21T20:24:59.359Z,79.16
2018-07-21T20:25:59.345Z,77.57
2018-07-21T20:26:59.336Z,77.00
2018-07-21T20:27:59.346Z,77.09
2018-07-21T20:28:59.319Z,77.76
2018-07-21T20:29:59.312Z,78.50
2018-07-21T20:30:59.303Z,79.17
2018-07-21T20:31:59.290Z,81.01
2018-07-21T20:32:59.295Z,79.56
2018-07-21T20:33:59.285Z,79.41
2018-07-21T20:34:59.263Z,78.83
2018-07-21T20:35:59.256Z,76.51
2018-07-21T20:36:59.239Z,74.90
2018-07-21T20:37:59.274Z,75.20
2018-07-21T20:38:59.224Z,75.39
2018-07-21T20:39:59.215Z,75.58
2018-07-21T20:40:59.204Z,75.68
2018-07-21T20:41:59.190Z,76.42
2018-07-21T20:42:59.186Z,75.93
2018-07-21T20:43:59.185Z,76.22
2018-07-21T20:44:59.164Z,77.86
2018-07-21T20:45:59.148Z,77.67
2018-07-21T20:46:59.142Z,78.92
2018-07-21T20:47:59.136Z,77.48
2018-07-21T20:48:59.141Z,78.44
2018-07-21T20:49:59.115Z,78.83
2018-07-21T20:50:59.103Z,77.57
2018-07-21T20:51:59.093Z,77.67
2018-07-21T20:52:59.081Z,76.32
2018-07-21T20:53:59.071Z,77.76
2018-07-21T20:54:59.084Z,77.57
2018-07-21T20:55:59.057Z,78.06
2018-07-21T20:57:00.912Z,78.64
2018-07-21T20:57:59.032Z,78.15
2018-07-21T20:58:59.019Z,79.41
2018-07-21T20:59:59.047Z,76.12
2018-07-21T21:00:59.002Z,76.32
2018-07-21T21:01:58.989Z,75.93
2018-07-21T21:02:58.985Z,76.32
2018-07-21T21:03:58.973Z,75.84
2018-07-21T21:04:58.958Z,76.93
2018-07-21T21:05:58.963Z,75.64
2018-07-21T21:06:58.961Z,76.06
2018-07-21T21:07:58.935Z,76.03
2018-07-21T21:08:58.924Z,75.84
2018-07-21T21:09:58.909Z,75.64
2018-07-21T21:10:58.918Z,76.03
2018-07-21T21:11:58.895Z,75.54
2018-07-21T21:12:58.896Z,75.35
2018-07-21T21:13:58.870Z,75.16
2018-07-21T21:14:58.860Z,74.87
2018-07-21T21:15:58.865Z,75.26
2018-07-21T21:16:58.861Z,75.74
2018-07-21T21:17:58.831Z,75.64
2018-07-21T21:18:58.820Z,74.10
2018-07-21T21:19:58.806Z,74.58
2018-07-21T21:20:58.804Z,74.29
2018-07-21T21:21:58.807Z,74.48
2018-07-21T21:22:58.793Z,75.16
2018-07-21T21:23:58.777Z,75.54
2018-07-21T21:24:58.787Z,75.16
2018-07-21T21:25:58.750Z,75.45
2018-07-21T21:26:58.748Z,75.64
2018-07-21T21:28:01.414Z,75.06
2018-07-21T21:28:58.740Z,75.16
2018-07-21T21:29:58.741Z,75.35
2018-07-21T21:30:58.769Z,75.26
2018-07-21T21:31:58.690Z,75.16
2018-07-21T21:32:58.762Z,75.79
2018-07-21T21:33:58.684Z,75.54
2018-07-21T21:34:58.676Z,76.37
2018-07-21T21:35:58.650Z,75.99
2018-07-21T21:36:58.653Z,76.76
2018-07-21T21:37:58.632Z,75.99
2018-07-21T21:38:58.616Z,76.03
2018-07-21T21:40:05.126Z,76.28
2018-07-21T21:40:58.598Z,77.44
2018-07-21T21:42:02.998Z,75.51
2018-07-21T21:42:58.582Z,76.76
2018-07-21T21:43:58.586Z,76.57
2018-07-21T21:44:59.722Z,77.15
2018-07-21T21:46:00.047Z,76.57
2018-07-21T21:46:58.616Z,76.76
2018-07-21T21:47:58.567Z,77.05
2018-07-21T21:49:00.499Z,77.83
2018-07-21T21:50:58.556Z,77.59
2018-07-21T21:51:58.488Z,76.95
2018-07-21T21:52:58.490Z,76.09
2018-07-21T21:53:58.472Z,76.09
2018-07-21T21:54:58.472Z,77.15
2018-07-21T21:55:58.444Z,76.09
2018-07-21T21:56:58.447Z,76.09
2018-07-21T21:57:58.439Z,77.05
2018-07-21T21:58:58.413Z,75.99
2018-07-21T21:59:58.459Z,77.53
2018-07-21T22:00:58.414Z,75.99
2018-07-21T22:01:58.393Z,77.21
2018-07-21T22:02:58.375Z,77.73
2018-07-21T22:03:58.372Z,77.40
2018-07-21T22:04:58.357Z,77.21
2018-07-21T22:05:58.366Z,77.69
2018-07-21T22:06:58.335Z,77.40
2018-07-21T22:07:58.325Z,77.69
2018-07-21T22:08:58.314Z,78.27
2018-07-21T22:09:58.319Z,77.78
2018-07-21T22:10:58.299Z,77.50
2018-07-21T22:11:58.312Z,79.04
2018-07-21T22:12:58.274Z,79.33
2018-07-21T22:13:58.270Z,78.36
2018-07-21T22:14:58.277Z,79.72
2018-07-21T22:15:58.258Z,79.43
2018-07-21T22:16:58.232Z,79.52
2018-07-21T22:17:58.229Z,79.52
2018-07-21T22:18:58.271Z,80.58
2018-07-21T22:19:58.219Z,79.58
2018-07-21T22:20:58.221Z,79.58
2018-07-21T22:21:58.210Z,79.39
2018-07-21T22:22:58.186Z,79.49
2018-07-21T22:23:58.190Z,79.58
2018-07-21T22:24:58.178Z,79.68
2018-07-21T22:25:58.164Z,79.58
2018-07-21T22:26:58.164Z,79.49
2018-07-21T22:27:58.162Z,79.49
2018-07-21T22:28:58.150Z,79.87
2018-07-21T22:29:58.132Z,80.35
2018-07-21T22:30:58.098Z,80.45
2018-07-21T22:31:58.085Z,80.45
2018-07-21T22:32:58.085Z,80.54
2018-07-21T22:33:58.144Z,79.97
2018-07-21T22:34:58.074Z,80.54
2018-07-21T22:35:58.047Z,81.80
2018-07-21T22:36:58.053Z,80.45
2018-07-21T22:37:58.015Z,80.54
2018-07-21T22:38:58.031Z,80.74
2018-07-21T22:39:58.008Z,80.74
2018-07-21T22:40:58.016Z,80.64
2018-07-21T22:41:57.983Z,80.54
2018-07-21T22:42:57.958Z,81.02
2018-07-21T22:44:18.978Z,80.83
2018-07-21T22:47:04.938Z,82.05
2018-07-21T22:48:31.708Z,82.24
2018-07-21T22:49:03.320Z,82.05
2018-07-21T22:49:57.914Z,82.43
2018-07-21T22:50:57.892Z,82.24
2018-07-21T22:51:57.877Z,83.30
2018-07-21T22:52:57.873Z,82.24
2018-07-21T22:53:57.875Z,82.43
2018-07-21T22:54:57.841Z,83.30
2018-07-21T22:55:57.881Z,83.01
2018-07-21T22:56:57.866Z,83.78
2018-07-21T22:57:57.828Z,84.17
2018-07-21T22:58:57.831Z,83.50
2018-07-21T22:59:57.827Z,83.88
2018-07-21T23:00:57.777Z,83.78
2018-07-21T23:01:57.766Z,84.75
2018-07-21T23:02:57.758Z,84.65
2018-07-21T23:03:57.752Z,83.98
2018-07-21T23:04:57.767Z,84.80
2018-07-21T23:05:57.725Z,84.32
2018-07-21T23:06:57.725Z,84.70
2018-07-21T23:07:57.719Z,85.28
2018-07-21T23:08:57.696Z,84.99
2018-07-21T23:09:57.704Z,85.77
2018-07-21T23:10:57.702Z,85.19
2018-07-21T23:11:57.657Z,85.86
2018-07-21T23:12:57.683Z,85.19
2018-07-21T23:13:57.626Z,86.25
2018-07-21T23:14:57.632Z,86.54
2018-07-21T23:15:57.623Z,87.30
2018-07-21T23:16:57.592Z,87.12
2018-07-21T23:17:57.602Z,87.70
2018-07-21T23:18:57.581Z,87.30
2018-07-21T23:19:57.559Z,86.73
2018-07-21T23:20:57.551Z,86.82
2018-07-21T23:21:57.549Z,87.50
2018-07-21T23:22:57.544Z,87.50
2018-07-21T23:23:57.516Z,87.21
2018-07-21T23:24:57.505Z,87.60
2018-07-21T23:25:57.495Z,86.82
2018-07-21T23:26:57.492Z,86.63
2018-07-21T23:27:57.480Z,86.92
2018-07-21T23:28:57.481Z,87.60
2018-07-21T23:29:57.450Z,88.17
2018-07-21T23:30:57.445Z,87.50
2018-07-21T23:31:57.434Z,88.56
2018-07-21T23:32:57.450Z,87.70
2018-07-21T23:33:57.407Z,88.75
2018-07-21T23:34:57.413Z,88.75
2018-07-21T23:35:57.383Z,88.13
2018-07-21T23:36:57.374Z,88.42
2018-07-21T23:37:57.365Z,89.39
2018-07-21T23:38:57.365Z,88.81
2018-07-21T23:39:57.351Z,89.48
2018-07-21T23:40:57.355Z,89.48
2018-07-21T23:41:57.315Z,88.81
2018-07-21T23:42:57.328Z,88.04
2018-07-21T23:43:57.292Z,88.13
2018-07-21T23:44:57.288Z,88.04
2018-07-21T23:45:57.274Z,88.81
2018-07-21T23:46:57.281Z,88.23
2018-07-21T23:47:57.250Z,87.84
2018-07-21T23:48:57.253Z,87.74
2018-07-21T23:49:57.227Z,88.81
2018-07-21T23:50:57.213Z,88.42
2018-07-21T23:51:57.246Z,88.13
2018-07-21T23:52:57.199Z,87.90
2018-07-21T23:53:57.202Z,88.67
2018-07-21T23:54:57.183Z,88.61
2018-07-21T23:55:57.166Z,89.24
2018-07-21T23:56:57.177Z,88.23
2018-07-21T23:57:57.142Z,88.81
2018-07-21T23:58:57.141Z,88.42
2018-07-21T23:59:57.144Z,89.34
